Time;durP1;ratioP1;P1;durP2;ratioP2;P2;SDS_P1;SDS_P2;PMS_P1;PMS_P2;Temp;Humidity;BMP_temperature;BMP_pressure;BME280_temperature;BME280_humidity;BME280_pressure;Samples;Min_cycle;Max_cycle;Signal;HPM_P1;HPM_P2
2022/12/23 00:01:06;;;;;;;92.00;43.00;;;;;;;3.47;92.64;100451.59;5084245;28;20703;-70
2022/12/23 00:03:32;;;;;;;93.88;41.88;;;;;;;3.45;93.14;100444.91;5090750;28;20035;-69
2022/12/23 00:05:58;;;;;;;82.07;39.60;;;;;;;3.53;92.45;100439.63;5052086;28;20024;-71
2022/12/23 00:08:24;;;;;;;77.65;38.80;;;;;;;3.44;92.49;100430.28;5084743;28;20089;-70
2022/12/23 00:10:52;;;;;;;82.05;39.47;;;;;;;3.34;92.55;100418.31;5087300;28;20019;-69
2022/12/23 00:16:08;;;;;;;80.10;37.70;;;;;;;3.58;92.30;100442.50;5088102;28;20043;-70
2022/12/23 00:18:34;;;;;;;82.40;40.25;;;;;;;3.45;92.66;100421.47;5087716;28;20508;-71
2022/12/23 00:21:01;;;;;;;91.18;41.25;;;;;;;3.47;92.32;100416.91;5087909;28;20036;-70
2022/12/23 00:23:27;;;;;;;82.75;41.00;;;;;;;3.54;92.91;100421.22;5085946;28;20065;-70
2022/12/23 00:25:53;;;;;;;89.82;43.20;;;;;;;3.26;95.10;100407.19;5070150;28;20040;-69
2022/12/23 00:28:21;;;;;;;93.25;43.63;;;;;;;3.37;94.42;100417.97;5086716;28;20107;-70
2022/12/23 00:31:07;;;;;;;84.53;41.15;;;;;;;3.37;95.62;100424.97;5086995;28;20032;-70
2022/12/23 00:33:35;;;;;;;81.82;40.13;;;;;;;3.38;95.06;100429.22;5087797;28;20093;-70
2022/12/23 00:36:01;;;;;;;78.15;38.50;;;;;;;3.31;94.83;100413.47;5088492;28;20024;-70
2022/12/23 00:44:02;;;;;;;83.53;38.85;;;;;;;3.30;95.32;100417.06;5089674;28;20165;-70
2022/12/23 00:46:27;;;;;;;75.35;38.88;;;;;;;3.37;95.26;100432.78;5086339;28;20028;-70
2022/12/23 00:51:37;;;;;;;80.45;37.95;;;;;;;3.38;95.38;100434.41;5089479;28;20043;-70
2022/12/23 00:54:03;;;;;;;78.78;39.35;;;;;;;3.40;95.66;100451.47;5066082;28;20031;-69
2022/12/23 00:56:29;;;;;;;88.32;40.55;;;;;;;3.36;95.25;100437.19;5085980;28;20530;-69
2022/12/23 00:58:54;;;;;;;83.78;39.85;;;;;;;3.39;96.12;100442.03;5086501;28;20028;-68
2022/12/23 01:06:47;;;;;;;82.82;40.13;;;;;;;3.37;95.79;100420.56;5084241;28;20066;-70
2022/12/23 01:09:13;;;;;;;88.35;40.75;;;;;;;3.37;95.56;100419.75;5088081;28;20443;-70
2022/12/23 01:11:38;;;;;;;78.95;39.05;;;;;;;3.08;95.61;100371.09;5087761;28;20512;-70
2022/12/23 01:14:04;;;;;;;76.72;38.60;;;;;;;3.32;96.05;100415.09;5084968;28;20024;-71
2022/12/23 01:16:29;;;;;;;84.13;39.80;;;;;;;3.37;95.82;100422.38;5088902;28;20473;-71
2022/12/23 01:18:54;;;;;;;80.07;38.85;;;;;;;3.33;95.45;100408.91;5082145;28;20028;-71
2022/12/23 01:21:20;;;;;;;83.07;40.58;;;;;;;3.40;95.21;100417.63;5069852;28;20052;-71
2022/12/23 01:23:45;;;;;;;83.88;40.28;;;;;;;3.34;95.74;100410.53;5085038;28;20086;-71
2022/12/23 01:26:11;;;;;;;80.93;40.63;;;;;;;3.37;96.00;100417.97;5084898;28;20069;-69
2022/12/23 01:28:36;;;;;;;83.72;39.80;;;;;;;3.33;95.36;100421.13;5085918;28;20535;-71
2022/12/23 01:31:05;;;;;;;88.88;40.10;;;;;;;3.37;95.22;100419.75;5085366;28;20772;-71
2022/12/23 01:33:31;;;;;;;82.05;38.22;;;;;;;3.31;95.82;100407.47;5069565;28;20032;-71
2022/12/23 01:36:02;;;;;;;84.30;39.20;;;;;;;3.24;95.39;100402.16;5068253;28;20496;-71
2022/12/23 01:38:28;;;;;;;77.28;37.45;;;;;;;3.33;95.82;100411.50;5079951;28;20027;-71
2022/12/23 01:40:54;;;;;;;78.63;37.55;;;;;;;3.22;95.53;100390.31;5084282;28;20048;-70
2022/12/23 01:43:19;;;;;;;78.25;37.78;;;;;;;3.23;95.74;100395.31;5070107;28;20020;-70
2022/12/23 01:45:45;;;;;;;76.28;38.45;;;;;;;3.36;95.74;100415.56;5082741;28;20099;-70
2022/12/23 01:48:16;;;;;;;78.78;38.35;;;;;;;3.19;95.48;100381.06;5067339;28;20063;-71
2022/12/23 01:50:57;;;;;;;80.78;36.60;;;;;;;3.38;95.21;100411.78;5080925;28;20027;-70
2022/12/23 01:53:28;;;;;;;79.85;37.30;;;;;;;3.25;95.51;100371.75;5084351;28;20481;-70
2022/12/23 01:55:59;;;;;;;81.07;37.40;;;;;;;3.32;95.19;100381.25;5068376;28;20432;-70
2022/12/23 01:58:30;;;;;;;84.28;38.42;;;;;;;3.40;95.42;100396.00;5088088;28;20134;-69
2022/12/23 02:03:42;;;;;;;81.80;37.72;;;;;;;3.32;94.86;100380.44;5065230;28;20412;-69
2022/12/23 02:09:16;;;;;;;78.53;37.45;;;;;;;3.38;95.28;100392.78;5084968;28;20035;-69
2022/12/23 02:11:41;;;;;;;79.88;36.85;;;;;;;3.49;95.18;100394.91;5083179;28;20029;-70
2022/12/23 02:17:24;;;;;;;80.97;37.70;;;;;;;3.54;95.30;100410.81;5081943;28;20166;-69
2022/12/23 02:20:27;;;;;;;82.43;37.20;;;;;;;3.56;95.07;100403.63;5082269;28;20385;-71
2022/12/23 02:23:30;;;;;;;75.60;37.35;;;;;;;3.57;94.90;100401.84;5088734;28;20020;-70
2022/12/23 02:26:07;;;;;;;70.72;35.42;;;;;;;3.57;95.15;100392.25;5074857;28;20027;-70
2022/12/23 02:28:47;;;;;;;73.40;35.03;;;;;;;3.35;94.94;100360.09;5067777;28;20063;-71
2022/12/23 02:31:12;;;;;;;;;;;;;;;3.46;95.61;100386.66;5063940;28;20115;-71
2022/12/23 02:33:49;;;;;;;76.63;35.53;;;;;;;3.45;95.59;100385.88;5067470;28;21405;-71
2022/12/23 02:36:33;;;;;;;74.43;34.90;;;;;;;3.46;95.72;100390.06;5081632;28;20023;-70
2022/12/23 02:39:06;;;;;;;76.13;37.58;;;;;;;3.38;95.63;100375.34;5078998;28;20028;-71
2022/12/23 02:41:57;;;;;;;74.00;36.97;;;;;;;3.49;95.73;100383.69;5064266;28;20021;-71
2022/12/23 02:44:37;;;;;;;73.15;36.45;;;;;;;3.39;95.34;100369.16;5083523;28;20028;-70
2022/12/23 02:47:10;;;;;;;76.90;38.20;;;;;;;3.27;95.62;100365.38;5078501;28;20032;-71
2022/12/23 02:49:40;;;;;;;76.10;38.20;;;;;;;3.24;95.81;100363.13;5081903;28;20489;-70
2022/12/23 02:52:12;;;;;;;80.53;39.10;;;;;;;3.30;95.88;100374.59;5067169;28;20024;-71
2022/12/23 02:54:56;;;;;;;78.75;37.42;;;;;;;3.36;96.16;100382.53;5085003;28;20469;-71
2022/12/23 02:57:31;;;;;;;74.97;37.30;;;;;;;3.31;96.25;100368.44;5082011;28;20107;-71
2022/12/23 02:59:57;;;;;;;83.10;38.05;;;;;;;3.40;96.22;100381.19;5084329;28;20050;-71
2022/12/23 03:02:22;;;;;;;79.32;37.53;;;;;;;3.27;96.10;100364.56;5050137;28;20024;-70
2022/12/23 03:04:48;;;;;;;81.22;38.25;;;;;;;3.26;95.85;100362.97;5082862;28;20132;-69
2022/12/23 03:07:24;;;;;;;78.63;36.70;;;;;;;3.31;95.88;100358.03;5078969;28;20020;-69
2022/12/23 03:10:35;;;;;;;77.10;36.60;;;;;;;3.38;95.90;100374.56;5071513;28;20032;-71
2022/12/23 03:13:03;;;;;;;80.75;38.13;;;;;;;3.37;96.69;100375.53;5060740;28;20038;-69
2022/12/23 03:15:43;;;;;;;81.72;39.05;;;;;;;3.26;96.39;100353.34;5088438;28;20055;-69
2022/12/23 03:18:33;;;;;;;79.32;37.67;;;;;;;3.34;95.91;100366.28;5084970;28;20094;-71
2022/12/23 03:21:01;;;;;;;85.88;37.80;;;;;;;3.44;95.92;100375.63;5067746;28;20016;-70
2022/12/23 03:23:36;;;;;;;79.53;38.25;;;;;;;3.10;95.62;100327.50;5084213;28;20733;-71
2022/12/23 03:26:11;;;;;;;75.60;37.92;;;;;;;3.47;95.92;100376.09;5084101;28;20024;-70
2022/12/23 03:29:03;;;;;;;80.47;38.05;;;;;;;3.37;95.72;100365.09;5065511;28;20386;-70
2022/12/23 03:31:30;;;;;;;81.40;38.15;;;;;;;3.41;95.97;100363.78;5069950;28;20028;-70
2022/12/23 03:34:09;;;;;;;76.72;36.72;;;;;;;3.49;95.96;100373.28;5082101;28;20060;-70
2022/12/23 03:36:43;;;;;;;80.80;38.13;;;;;;;3.54;95.73;100374.34;5070947;28;20066;-69
2022/12/23 03:39:15;;;;;;;78.00;38.85;;;;;;;3.57;95.88;100375.81;5080961;28;20043;-70
2022/12/23 03:41:46;;;;;;;80.15;38.00;;;;;;;3.52;95.57;100363.34;5069457;28;20381;-70
2022/12/23 03:44:35;;;;;;;85.60;40.17;;;;;;;3.48;95.57;100354.25;5086346;28;20157;-71
2022/12/23 03:47:06;;;;;;;;;;;;;;;3.60;95.31;100370.25;5086097;28;20028;-70
2022/12/23 03:49:49;;;;;;;76.47;37.15;;;;;;;3.57;95.86;100375.81;5085087;28;20285;-70
2022/12/23 03:52:20;;;;;;;84.65;39.50;;;;;;;3.53;95.38;100364.13;5088272;28;20107;-71
2022/12/23 03:54:56;;;;;;;102.30;45.58;;;;;;;3.58;96.16;100367.81;5091056;28;20027;-71
2022/12/23 03:57:28;;;;;;;87.18;40.15;;;;;;;3.59;95.75;100369.44;5071840;28;20097;-71
2022/12/23 03:59:53;;;;;;;86.35;39.67;;;;;;;3.57;95.54;100358.41;5083086;28;20023;-71
2022/12/23 04:02:51;;;;;;;83.15;39.13;;;;;;;3.63;95.63;100368.06;5086365;28;20028;-71
2022/12/23 04:05:28;;;;;;;85.38;38.50;;;;;;;3.63;95.74;100362.88;5081074;28;20805;-71
2022/12/23 04:08:12;;;;;;;84.80;39.25;;;;;;;3.64;95.27;100366.31;5081636;28;20024;-70
2022/12/23 04:10:37;;;;;;;88.93;40.90;;;;;;;3.57;96.15;100360.19;5089166;28;20027;-70
2022/12/23 04:13:03;;;;;;;88.72;41.10;;;;;;;3.54;96.21;100358.72;5080885;28;20064;-69
2022/12/23 04:15:29;;;;;;;90.13;42.40;;;;;;;3.57;96.68;100362.81;5088678;28;20032;-70
2022/12/23 04:17:56;;;;;;;91.75;42.55;;;;;;;3.56;96.17;100359.38;5086595;28;20704;-70
2022/12/23 04:20:22;;;;;;;83.45;39.33;;;;;;;3.47;96.16;100344.84;5084440;28;20430;-70
2022/12/23 04:22:47;;;;;;;84.22;39.53;;;;;;;3.63;96.56;100369.88;5084085;28;20025;-69
2022/12/23 04:25:15;;;;;;;88.90;41.75;;;;;;;3.54;97.05;100356.13;5086241;28;20050;-69
2022/12/23 04:27:40;;;;;;;90.28;42.72;;;;;;;3.52;97.44;100352.09;5084189;28;20067;-69
2022/12/23 04:30:07;;;;;;;89.03;41.65;;;;;;;3.58;97.75;100365.22;5083718;28;20486;-69
2022/12/23 04:32:33;;;;;;;90.25;42.70;;;;;;;3.31;97.99;100321.59;5089989;28;20024;-70
2022/12/23 04:34:58;;;;;;;89.68;41.90;;;;;;;3.57;97.27;100358.41;5085332;28;20023;-70
2022/12/23 04:37:23;;;;;;;87.22;39.83;;;;;;;3.45;97.63;100338.19;5086678;28;20487;-69
2022/12/23 04:39:49;;;;;;;88.82;41.78;;;;;;;3.52;97.56;100355.53;5063758;28;20035;-70
2022/12/23 04:42:14;;;;;;;82.80;40.80;;;;;;;3.29;97.77;100315.75;5083561;28;20056;-71
2022/12/23 04:44:39;;;;;;;81.57;40.47;;;;;;;3.55;98.15;100352.56;5080913;28;20035;-71
2022/12/23 04:47:05;;;;;;;80.38;40.78;;;;;;;3.62;98.10;100360.47;5080657;28;20032;-71
2022/12/23 04:49:31;;;;;;;76.05;37.65;;;;;;;3.47;100.00;100334.44;5078894;28;20027;-71
2022/12/23 04:51:56;;;;;;;79.20;39.30;;;;;;;3.43;100.00;100335.78;5080976;28;20184;-71
2022/12/23 04:54:22;;;;;;;81.53;40.85;;;;;;;3.48;100.00;100343.84;5082752;28;20034;-71
2022/12/23 04:56:47;;;;;;;80.15;39.35;;;;;;;3.52;100.00;100352.91;5078783;28;20076;-71
2022/12/23 04:59:12;;;;;;;83.38;40.97;;;;;;;3.40;100.00;100328.34;5060344;28;20025;-71
2022/12/23 05:01:38;;;;;;;81.75;39.63;;;;;;;3.52;100.00;100357.31;5062713;28;20020;-71
2022/12/23 05:04:03;;;;;;;82.35;41.03;;;;;;;3.43;100.00;100333.16;5061311;28;20204;-71
2022/12/23 05:06:29;;;;;;;79.20;39.90;;;;;;;3.45;100.00;100333.81;5083036;28;20107;-72
2022/12/23 05:08:54;;;;;;;80.82;39.63;;;;;;;3.59;100.00;100351.22;5069148;28;20037;-71
2022/12/23 05:11:20;;;;;;;82.30;39.67;;;;;;;3.55;100.00;100347.34;5086366;28;20028;-70
2022/12/23 05:13:45;;;;;;;89.90;41.95;;;;;;;3.62;100.00;100350.84;5080320;28;20059;-70
2022/12/23 05:16:10;;;;;;;88.38;41.17;;;;;;;3.56;100.00;100343.75;5077659;28;20028;-70
2022/12/23 05:18:36;;;;;;;86.63;41.80;;;;;;;3.69;100.00;100355.31;5083069;28;20043;-70
2022/12/23 05:21:01;;;;;;;88.55;42.65;;;;;;;3.65;100.00;100344.47;5083460;28;20047;-70
2022/12/23 05:23:26;;;;;;;89.45;42.90;;;;;;;3.66;100.00;100355.69;5069793;28;20028;-71
2022/12/23 05:25:53;;;;;;;87.30;41.45;;;;;;;3.65;100.00;100356.69;5086813;28;20111;-71
2022/12/23 05:28:22;;;;;;;104.68;49.97;;;;;;;3.93;100.00;100351.63;5081857;28;20056;-71
2022/12/23 05:30:48;;;;;;;97.10;47.47;;;;;;;4.04;100.00;100351.94;5070048;28;20036;-71
2022/12/23 05:33:13;;;;;;;89.97;43.20;;;;;;;3.80;100.00;100339.25;5085572;28;20482;-70
2022/12/23 05:35:39;;;;;;;86.22;42.72;;;;;;;3.71;100.00;100345.53;5085174;28;20109;-71
2022/12/23 05:38:04;;;;;;;89.10;42.80;;;;;;;3.65;100.00;100338.47;5087763;28;20058;-71
2022/12/23 05:40:30;;;;;;;91.07;44.10;;;;;;;3.69;100.00;100363.13;5082026;28;20081;-72
2022/12/23 05:42:55;;;;;;;86.43;42.75;;;;;;;3.73;100.00;100356.56;5076846;28;20020;-71
2022/12/23 05:45:21;;;;;;;93.05;44.70;;;;;;;3.70;100.00;100347.34;5077809;28;20029;-71
2022/12/23 05:47:46;;;;;;;98.32;45.65;;;;;;;3.73;100.00;100344.34;5080606;28;20477;-69
2022/12/23 05:50:12;;;;;;;90.95;44.90;;;;;;;3.62;100.00;100324.00;5066536;28;20031;-69
2022/12/23 05:52:38;;;;;;;93.35;44.28;;;;;;;3.63;100.00;100330.81;5080611;28;20438;-69
2022/12/23 05:55:04;;;;;;;92.78;43.92;;;;;;;3.50;100.00;100321.06;5068527;28;20040;-70
2022/12/23 05:57:30;;;;;;;91.35;44.05;;;;;;;3.61;100.00;100331.00;5082458;28;20020;-70
2022/12/23 05:59:56;;;;;;;88.43;43.83;;;;;;;3.64;100.00;100340.25;5078912;28;20023;-70
2022/12/23 06:02:22;;;;;;;97.05;45.30;;;;;;;3.65;100.00;100341.88;5077147;28;20435;-69
2022/12/23 06:04:48;;;;;;;89.75;43.08;;;;;;;3.59;100.00;100332.16;5065219;28;20052;-70
2022/12/23 06:07:14;;;;;;;89.55;43.80;;;;;;;3.59;100.00;100337.38;5080578;28;20028;-70
2022/12/23 06:09:39;;;;;;;90.47;43.17;;;;;;;3.69;100.00;100353.53;5076635;28;20096;-71
2022/12/23 06:12:05;;;;;;;96.07;43.75;;;;;;;3.76;100.00;100359.66;5080180;28;20512;-71
2022/12/23 06:14:30;;;;;;;97.63;46.90;;;;;;;3.78;100.00;100362.03;5080085;28;20055;-71
2022/12/23 06:16:55;;;;;;;108.13;50.47;;;;;;;3.73;100.00;100354.78;5067575;28;20040;-71
2022/12/23 06:19:21;;;;;;;100.68;47.92;;;;;;;3.83;100.00;100370.13;5077016;28;20028;-70
2022/12/23 06:21:46;;;;;;;103.40;50.42;;;;;;;3.60;100.00;100339.81;5086856;28;20047;-71
2022/12/23 06:24:11;;;;;;;95.05;45.88;;;;;;;3.77;100.00;100361.25;5062826;28;20056;-71
2022/12/23 06:26:37;;;;;;;93.20;43.55;;;;;;;3.70;100.00;100354.34;5076888;28;20146;-69
2022/12/23 06:29:03;;;;;;;89.93;44.85;;;;;;;3.83;100.00;100376.16;5059752;28;20025;-69
2022/12/23 06:31:28;;;;;;;83.78;40.95;;;;;;;3.72;100.00;100360.19;5079683;28;20492;-69
2022/12/23 06:33:54;;;;;;;88.50;43.97;;;;;;;3.80;100.00;100373.09;5079049;28;20016;-71
2022/12/23 06:36:19;;;;;;;88.47;42.40;;;;;;;3.76;100.00;100370.06;5077753;28;20531;-70
2022/12/23 06:38:44;;;;;;;83.60;42.58;;;;;;;3.74;100.00;100364.22;5081917;28;20038;-71
2022/12/23 06:41:10;;;;;;;90.18;43.40;;;;;;;3.89;100.00;100385.03;5077185;28;20106;-71
2022/12/23 06:43:35;;;;;;;90.28;45.22;;;;;;;3.85;100.00;100378.56;5076952;28;20015;-71
2022/12/23 06:46:01;;;;;;;90.03;43.63;;;;;;;3.85;100.00;100378.56;5077696;28;20720;-71
2022/12/23 06:48:26;;;;;;;86.15;42.40;;;;;;;3.84;100.00;100376.97;5081063;28;20028;-69
2022/12/23 06:50:51;;;;;;;82.40;42.40;;;;;;;3.77;100.00;100381.28;5087133;28;20043;-70
2022/12/23 06:53:17;;;;;;;82.88;42.45;;;;;;;3.81;100.00;100382.53;5078539;28;20081;-70
2022/12/23 06:55:42;;;;;;;94.20;44.42;;;;;;;3.83;100.00;100380.53;5079879;28;20026;-71
2022/12/23 06:58:08;;;;;;;89.60;44.47;;;;;;;3.93;100.00;100401.94;5078760;28;20077;-70
2022/12/23 07:00:33;;;;;;;89.28;43.72;;;;;;;3.90;100.00;100393.66;5077340;28;20103;-69
2022/12/23 07:02:58;;;;;;;86.18;42.22;;;;;;;3.93;100.00;100386.31;5060914;28;20048;-69
2022/12/23 07:05:24;;;;;;;94.45;43.85;;;;;;;4.01;100.00;100393.22;5059178;28;20090;-68
2022/12/23 07:07:49;;;;;;;92.07;45.20;;;;;;;3.87;100.00;100366.19;5061739;28;20020;-71
2022/12/23 07:10:14;;;;;;;95.22;46.97;;;;;;;3.99;100.00;100380.34;5063129;28;20074;-71
2022/12/23 07:12:40;;;;;;;94.55;46.90;;;;;;;4.02;100.00;100381.78;5076118;28;20019;-70
2022/12/23 07:15:06;;;;;;;101.38;48.83;;;;;;;4.04;100.00;100380.59;5076038;28;20097;-69
2022/12/23 07:17:31;;;;;;;105.00;48.03;;;;;;;4.11;100.00;100385.09;5073936;28;20062;-70
2022/12/23 07:19:57;;;;;;;101.05;48.88;;;;;;;4.21;100.00;100388.22;5056206;28;20043;-70
2022/12/23 07:22:23;;;;;;;104.82;49.05;;;;;;;4.26;100.00;100397.13;5068356;28;20475;-68
2022/12/23 07:24:48;;;;;;;106.25;50.08;;;;;;;4.31;100.00;100398.34;5080524;28;20021;-69
2022/12/23 07:27:13;;;;;;;106.57;50.40;;;;;;;4.23;100.00;100375.81;5086522;28;20024;-69
2022/12/23 07:29:39;;;;;;;94.10;47.10;;;;;;;4.40;100.00;100400.66;5080788;28;20039;-71
2022/12/23 07:32:08;;;;;;;101.03;48.60;;;;;;;4.29;100.00;100382.91;5088698;28;20028;-71
2022/12/23 07:34:41;;;;;;;97.60;47.27;;;;;;;4.47;100.00;100401.53;5088007;28;20029;-69
2022/12/23 07:37:07;;;;;;;98.57;47.15;;;;;;;4.31;100.00;100367.91;5078721;28;20024;-70
2022/12/23 07:39:33;;;;;;;93.20;45.13;;;;;;;4.46;100.00;100392.13;5079612;28;20039;-70
2022/12/23 07:41:58;;;;;;;98.43;47.80;;;;;;;4.50;100.00;100396.94;5081811;28;21024;-69
2022/12/23 07:44:24;;;;;;;95.22;46.78;;;;;;;4.57;100.00;100413.47;5080740;28;20110;-69
2022/12/23 07:46:50;;;;;;;91.90;44.67;;;;;;;4.66;100.00;100428.00;5079659;28;20027;-69
2022/12/23 07:49:15;;;;;;;93.55;45.88;;;;;;;4.55;100.00;100407.63;5062467;28;20132;-80
2022/12/23 07:51:40;;;;;;;89.97;44.08;;;;;;;4.62;100.00;100414.56;5083390;28;20039;-81
2022/12/23 07:54:08;;;;;;;88.28;44.35;;;;;;;4.75;100.00;100431.31;5087097;28;20024;-80
2022/12/23 07:56:37;;;;;;;86.18;45.00;;;;;;;4.60;100.00;100400.09;5082578;28;20028;-80
2022/12/23 07:59:12;;;;;;;87.65;44.22;;;;;;;4.81;100.00;100428.78;5085560;28;20149;-75
2022/12/23 08:01:37;;;;;;;87.68;44.67;;;;;;;4.81;100.00;100434.00;5079274;28;20020;-80
2022/12/23 08:04:05;;;;;;;83.75;42.95;;;;;;;4.83;100.00;100428.59;5082515;28;20043;-79
2022/12/23 08:06:34;;;;;;;85.25;44.42;;;;;;;4.90;100.00;100443.31;5083414;28;20028;-77
2022/12/23 08:08:59;;;;;;;86.35;43.53;;;;;;;4.84;100.00;100431.00;5080122;28;20120;-78
2022/12/23 08:11:25;;;;;;;86.50;45.78;;;;;;;4.97;100.00;100455.63;5067961;28;20147;-79
2022/12/23 08:13:51;;;;;;;85.03;42.47;;;;;;;4.97;100.00;100445.97;5088355;28;20035;-79
2022/12/23 08:16:17;;;;;;;81.72;41.75;;;;;;;4.94;100.00;100435.91;5071516;28;20035;-80
2022/12/23 08:18:43;;;;;;;83.53;42.47;;;;;;;5.00;100.00;100439.56;5073654;28;20027;-79
2022/12/23 08:21:14;;;;;;;82.68;42.92;;;;;;;5.05;100.00;100443.25;5069029;28;20032;-80
2022/12/23 08:23:40;;;;;;;82.90;43.67;;;;;;;4.95;100.00;100428.91;5066636;28;20147;-77
2022/12/23 08:26:11;;;;;;;87.88;46.85;;;;;;;4.88;100.00;100414.00;5088188;28;20036;-78
2022/12/23 08:28:38;;;;;;;85.18;43.88;;;;;;;5.15;100.00;100452.53;5083777;28;20035;-78
2022/12/23 08:31:11;;;;;;;87.25;42.13;;;;;;;5.18;100.00;100450.38;5062671;28;20040;-78
2022/12/23 08:33:39;;;;;;;87.88;43.00;;;;;;;5.12;100.00;100438.06;5064386;28;20070;-79
2022/12/23 08:36:06;;;;;;;132.98;56.60;;;;;;;5.36;100.00;100452.53;5066388;28;20061;-78
2022/12/23 08:38:33;;;;;;;108.35;53.33;;;;;;;5.58;100.00;100458.53;5066615;28;20498;-76
2022/12/23 08:40:59;;;;;;;95.75;47.75;;;;;;;5.47;100.00;100436.34;5086917;28;20050;-79
2022/12/23 08:43:24;;;;;;;88.68;45.70;;;;;;;5.47;100.00;100433.72;5084776;28;20032;-79
2022/12/23 08:45:50;;;;;;;86.40;42.80;;;;;;;5.52;100.00;100438.38;5066695;28;20020;-76
2022/12/23 08:48:16;;;;;;;82.72;41.90;;;;;;;5.46;100.00;100434.75;5062100;28;20117;-75
2022/12/23 08:50:43;;;;;;;87.40;43.85;;;;;;;5.53;100.00;100435.59;5081252;28;20023;-77
2022/12/23 08:53:10;;;;;;;91.13;46.05;;;;;;;5.48;100.00;100424.91;5071689;28;20036;-77
2022/12/23 08:55:43;;;;;;;83.57;41.08;;;;;;;5.59;100.00;100430.59;5086978;28;20047;-73
2022/12/23 08:58:10;;;;;;;80.95;40.72;;;;;;;5.63;100.00;100431.84;5085576;28;20036;-73
2022/12/23 09:00:35;;;;;;;75.95;38.75;;;;;;;5.55;100.00;100411.88;5066139;28;20038;-73
2022/12/23 09:03:01;;;;;;;82.18;41.05;;;;;;;5.71;100.00;100426.47;5086517;28;20040;-73
2022/12/23 09:05:27;;;;;;;77.57;40.58;;;;;;;5.72;100.00;100423.66;5089589;28;20114;-73
2022/12/23 09:07:52;;;;;;;83.53;40.40;;;;;;;5.77;100.00;100425.69;5082989;28;20469;-74
2022/12/23 09:10:18;;;;;;;78.07;39.53;;;;;;;5.83;100.00;100434.56;5088150;28;20039;-73
2022/12/23 09:12:44;;;;;;;82.10;40.15;;;;;;;5.89;100.00;100420.72;5068751;28;20776;-74
2022/12/23 09:15:09;;;;;;;82.00;41.75;;;;;;;5.81;100.00;100411.22;5063032;28;20036;-74
2022/12/23 09:17:35;;;;;;;78.18;39.25;;;;;;;5.91;100.00;100413.50;5086099;28;20032;-74
2022/12/23 09:20:00;;;;;;;77.40;38.55;;;;;;;5.97;100.00;100413.56;5081912;28;20412;-73
2022/12/23 09:22:25;;;;;;;82.03;39.38;;;;;;;5.77;100.00;100368.22;5071697;28;20016;-78
2022/12/23 09:24:51;;;;;;;78.47;40.40;;;;;;;6.02;100.00;100391.28;5087582;28;20024;-73
2022/12/23 09:27:16;;;;;;;74.90;38.78;;;;;;;6.06;100.00;100388.06;5084765;28;20111;-73
2022/12/23 09:29:42;;;;;;;77.72;40.08;;;;;;;6.14;100.00;100393.13;5064176;28;20036;-73
2022/12/23 09:32:07;;;;;;;74.72;38.50;;;;;;;6.26;100.00;100401.22;5064353;28;20036;-73
2022/12/23 09:34:33;;;;;;;73.15;38.10;;;;;;;6.23;100.00;100385.91;5065283;28;20363;-72
2022/12/23 09:36:58;;;;;;;71.55;38.15;;;;;;;6.36;100.00;100387.75;5083502;28;20093;-72
2022/12/23 09:39:24;;;;;;;73.43;38.40;;;;;;;6.38;100.00;100378.72;5080265;28;20020;-74
2022/12/23 09:42:14;;;;;;;74.35;39.30;;;;;;;6.53;100.00;100396.03;5081566;28;20413;-77
2022/12/23 09:44:53;;;;;;;73.50;38.47;;;;;;;6.50;99.34;100386.78;5076512;28;20024;-77
2022/12/23 09:47:21;;;;;;;69.45;36.90;;;;;;;6.59;98.74;100388.22;5067848;28;20059;-77
2022/12/23 09:49:58;;;;;;;72.57;38.10;;;;;;;6.68;98.52;100386.22;5080013;28;20027;-77
2022/12/23 09:52:35;;;;;;;74.35;39.65;;;;;;;6.64;98.11;100378.97;5076566;28;20036;-78
2022/12/23 09:55:00;;;;;;;77.10;39.78;;;;;;;6.64;97.75;100384.19;5078260;28;20381;-77
2022/12/23 09:57:40;;;;;;;71.18;38.25;;;;;;;6.80;97.87;100402.94;5083034;28;20107;-69
2022/12/23 10:00:13;;;;;;;71.47;38.42;;;;;;;6.86;98.06;100405.75;5077903;28;20019;-69
2022/12/23 10:03:07;;;;;;;76.03;40.55;;;;;;;6.77;97.39;100385.00;5085216;28;20020;-69
2022/12/23 10:06:00;;;;;;;77.50;39.58;;;;;;;6.90;97.61;100405.16;5077843;28;20047;-69
2022/12/23 10:08:25;;;;;;;82.00;42.90;;;;;;;6.93;97.89;100391.66;5085474;28;20027;-69
2022/12/23 10:10:54;;;;;;;89.28;44.78;;;;;;;6.69;97.69;100350.38;5062641;28;20024;-69
2022/12/23 10:13:26;;;;;;;77.38;41.30;;;;;;;6.98;97.85;100385.84;5079748;28;20020;-69
2022/12/23 10:15:56;;;;;;;82.85;41.10;;;;;;;6.90;97.82;100360.66;5079331;28;20035;-71
2022/12/23 10:18:30;;;;;;;81.95;43.05;;;;;;;7.08;98.01;100388.84;5078173;28;20177;-70
2022/12/23 10:21:02;;;;;;;78.47;42.00;;;;;;;7.14;97.97;100387.25;5068135;28;20057;-71
2022/12/23 10:23:38;;;;;;;79.57;42.50;;;;;;;7.20;98.09;100386.41;5087535;28;20044;-70
2022/12/23 10:26:19;;;;;;;77.90;41.22;;;;;;;7.27;97.60;100389.03;5081320;28;20123;-73
2022/12/23 10:28:44;;;;;;;89.57;44.33;;;;;;;7.17;97.92;100376.38;5058280;28;20120;-68
2022/12/23 10:31:58;;;;;;;92.68;46.47;;;;;;;7.31;97.82;100391.06;5080190;28;20115;-69
2022/12/23 10:35:01;;;;;;;90.05;44.05;;;;;;;7.41;98.06;100388.81;5054621;28;20044;-77
2022/12/23 10:37:48;;;;;;;94.65;44.67;;;;;;;7.41;97.96;100388.81;5074055;28;20089;-75
2022/12/23 10:40:31;;;;;;;83.65;41.03;;;;;;;7.45;98.18;100381.38;5077475;28;20032;-77
2022/12/23 10:42:56;;;;;;;87.95;43.80;;;;;;;7.50;98.35;100381.56;5075451;28;20016;-76
2022/12/23 10:45:32;;;;;;;88.10;44.40;;;;;;;7.44;98.56;100367.44;5075654;28;20481;-78
2022/12/23 10:48:16;;;;;;;91.55;45.83;;;;;;;7.53;98.83;100373.28;5076710;28;20057;-76
2022/12/23 10:50:48;;;;;;;94.90;45.97;;;;;;;7.53;98.78;100357.56;5079315;28;20067;-76
2022/12/23 10:53:27;;;;;;;95.05;46.45;;;;;;;7.57;98.89;100356.16;5084008;28;20126;-77
2022/12/23 10:55:56;;;;;;;95.30;46.63;;;;;;;7.54;98.89;100346.09;5081214;28;20035;-77
2022/12/23 10:58:21;;;;;;;94.63;48.72;;;;;;;7.62;98.97;100345.03;5080364;28;20370;-77
2022/12/23 11:00:54;;;;;;;97.43;49.38;;;;;;;7.69;99.38;100343.22;5074383;28;20027;-77
2022/12/23 11:03:40;;;;;;;101.20;47.58;;;;;;;7.75;99.37;100339.75;5078086;28;20298;-78
2022/12/23 11:06:08;;;;;;;93.93;46.50;;;;;;;7.91;99.23;100343.72;5075345;28;20032;-77
2022/12/23 11:08:35;;;;;;;89.38;45.78;;;;;;;8.00;98.85;100336.44;5058904;28;20032;-77
2022/12/23 11:11:01;;;;;;;95.53;45.20;;;;;;;8.19;98.66;100347.81;5076934;28;20089;-77
2022/12/23 11:13:36;;;;;;;84.00;43.13;;;;;;;7.98;97.97;100291.25;5082694;28;20024;-77
2022/12/23 11:16:24;;;;;;;86.35;44.38;;;;;;;8.31;97.97;100320.72;5079036;28;20113;-76
2022/12/23 11:19:13;;;;;;;82.13;43.92;;;;;;;8.52;97.30;100334.53;5080812;28;20030;-76
2022/12/23 11:21:51;;;;;;;;;;;;;;;8.62;96.49;100340.13;5079133;28;20480;-75
2022/12/23 11:24:18;;;;;;;77.68;39.53;;;;;;;8.68;96.41;100334.00;5076298;28;20475;-75
2022/12/23 11:26:47;;;;;;;84.70;42.13;;;;;;;8.71;96.11;100309.97;5079546;28;20114;-75
2022/12/23 11:29:22;;;;;;;71.70;38.75;;;;;;;8.95;96.10;100331.16;5063902;28;20032;-74
2022/12/23 11:31:48;;;;;;;76.65;40.10;;;;;;;9.05;95.37;100333.28;5080820;28;20056;-68
2022/12/23 11:34:17;;;;;;;76.18;40.22;;;;;;;9.15;95.13;100329.16;5084928;28;20051;-69
2022/12/23 11:36:49;;;;;;;76.25;39.92;;;;;;;9.20;95.09;100314.59;5079619;28;20466;-68
2022/12/23 11:39:23;;;;;;;76.05;41.22;;;;;;;9.24;93.87;100305.22;5068226;28;20040;-68
2022/12/23 11:41:51;;;;;;;76.45;40.63;;;;;;;9.40;94.30;100317.78;5080964;28;20028;-75
2022/12/23 11:44:22;;;;;;;68.85;38.85;;;;;;;9.51;93.66;100319.69;5065575;28;20378;-74
2022/12/23 11:46:48;;;;;;;73.60;39.65;;;;;;;9.57;93.22;100325.88;5082987;28;20020;-75
2022/12/23 11:49:15;;;;;;;70.30;38.88;;;;;;;9.58;93.26;100312.53;5085855;28;20035;-75
2022/12/23 11:51:46;;;;;;;72.20;38.38;;;;;;;9.70;92.86;100322.31;5089114;28;20032;-76